Time;durP1;ratioP1;P1;durP2;ratioP2;P2;SDS_P1;SDS_P2;PMS_P1;PMS_P2;Temp;Humidity;BMP_temperature;BMP_pressure;BME280_temperature;BME280_humidity;BME280_pressure;Samples;Min_cycle;Max_cycle;Signal;HPM_P1;HPM_P2
2022/04/06 00:00:12;;;;;;;119.93;53.65;;;4.80;99.90;;;;;;5094616;28;20036;-51
2022/04/06 00:02:39;;;;;;;111.15;52.75;;;4.70;99.90;;;;;;5094287;28;20123;-51
2022/04/06 00:05:08;;;;;;;109.72;50.83;;;4.70;99.90;;;;;;5094576;28;20032;-51
2022/04/06 00:07:34;;;;;;;110.28;49.83;;;4.60;99.90;;;;;;5094375;28;20126;-51
2022/04/06 00:10:00;;;;;;;103.13;47.88;;;4.60;99.90;;;;;;5094599;28;20080;-51
2022/04/06 00:12:26;;;;;;;107.55;48.75;;;4.60;99.90;;;;;;5094325;28;20074;-51
2022/04/06 00:14:52;;;;;;;95.68;45.60;;;4.60;99.90;;;;;;5094280;28;20065;-52
2022/04/06 00:17:18;;;;;;;97.82;46.40;;;4.50;99.90;;;;;;5094441;28;20424;-51
2022/04/06 00:19:44;;;;;;;105.82;47.72;;;4.50;99.90;;;;;;5094332;28;20024;-51
2022/04/06 00:22:10;;;;;;;112.65;49.28;;;4.50;99.90;;;;;;5094403;28;20040;-51
2022/04/06 00:24:36;;;;;;;110.78;49.50;;;4.50;99.90;;;;;;5094584;28;20043;-51
2022/04/06 00:27:02;;;;;;;110.82;51.35;;;4.50;99.90;;;;;;5094604;28;20020;-51
2022/04/06 00:29:28;;;;;;;102.75;48.67;;;4.50;99.90;;;;;;5076389;28;20512;-51
2022/04/06 00:31:54;;;;;;;236.07;91.32;;;4.60;99.90;;;;;;5094196;28;20024;-51
2022/04/06 00:35:28;;;;;;;273.70;103.15;;;4.60;99.90;;;;;;5094424;28;20035;-51
2022/04/06 00:37:06;;;;;;;182.32;72.38;;;4.50;99.90;;;;;;5094283;28;20431;-51
2022/04/06 00:39:32;;;;;;;133.68;56.15;;;4.50;99.90;;;;;;5094210;28;20032;-51
2022/04/06 00:41:58;;;;;;;163.93;77.07;;;4.40;99.90;;;;;;5094470;28;20036;-51
2022/04/06 00:44:27;;;;;;;140.10;62.42;;;4.40;99.90;;;;;;5094171;28;20043;-51
2022/04/06 00:46:53;;;;;;;117.30;50.95;;;4.50;99.90;;;;;;5093964;28;20044;-51
2022/04/06 00:49:19;;;;;;;117.35;53.28;;;4.40;99.90;;;;;;5094192;28;20085;-51
2022/04/06 00:51:49;;;;;;;110.80;51.30;;;4.30;99.90;;;;;;5094437;28;20035;-51
2022/04/06 00:54:17;;;;;;;212.15;85.03;;;4.30;99.90;;;;;;5094096;28;20027;-51
2022/04/06 00:56:45;;;;;;;196.13;80.70;;;4.40;99.90;;;;;;5094230;28;20028;-51
2022/04/06 00:59:11;;;;;;;160.18;66.40;;;4.40;99.90;;;;;;5093961;28;20020;-51
2022/04/06 01:01:38;;;;;;;97.80;44.70;;;4.30;99.90;;;;;;5094029;28;20111;-51
2022/04/06 01:04:04;;;;;;;112.70;47.53;;;4.30;99.90;;;;;;5094097;28;20027;-51
2022/04/06 01:06:30;;;;;;;113.75;50.70;;;4.20;99.90;;;;;;5093755;28;20016;-51
2022/04/06 01:08:57;;;;;;;116.07;51.47;;;4.20;99.90;;;;;;5093765;28;20465;-51
2022/04/06 01:11:23;;;;;;;110.07;50.22;;;4.10;99.90;;;;;;5094026;28;20036;-51
2022/04/06 01:13:51;;;;;;;121.30;51.30;;;4.00;99.90;;;;;;5093682;28;20043;-51
2022/04/06 01:16:17;;;;;;;104.93;49.28;;;3.90;99.90;;;;;;5094108;28;20048;-51
2022/04/06 01:18:43;;;;;;;88.72;43.50;;;3.90;99.90;;;;;;5094163;28;20028;-51
2022/04/06 01:21:11;;;;;;;88.05;42.38;;;3.90;99.90;;;;;;5097541;28;20032;-51
2022/04/06 01:23:41;;;;;;;101.93;46.08;;;4.00;99.90;;;;;;5097480;28;20039;-51
2022/04/06 01:26:11;;;;;;;105.32;48.40;;;4.00;99.90;;;;;;5097671;28;20105;-51
2022/04/06 01:28:38;;;;;;;104.38;48.53;;;4.00;99.90;;;;;;5097344;28;20024;-51
2022/04/06 01:31:05;;;;;;;101.68;46.63;;;4.10;99.90;;;;;;5097259;28;20389;-51
2022/04/06 01:33:31;;;;;;;90.40;42.08;;;4.20;99.90;;;;;;5097470;28;20031;-51
2022/04/06 01:35:58;;;;;;;82.97;39.95;;;4.20;99.90;;;;;;5097149;28;20027;-51
2022/04/06 01:38:24;;;;;;;84.32;40.22;;;4.30;99.90;;;;;;5097169;28;20027;-52
2022/04/06 01:40:52;;;;;;;81.60;39.65;;;4.40;99.90;;;;;;5097258;28;20028;-51
2022/04/06 01:43:18;;;;;;;77.25;38.13;;;4.40;99.90;;;;;;5096787;28;20028;-51
2022/04/06 01:45:44;;;;;;;75.45;36.80;;;4.40;99.90;;;;;;5097242;28;20024;-51
2022/04/06 01:48:10;;;;;;;85.45;38.05;;;4.30;99.90;;;;;;5097005;28;20035;-51
2022/04/06 01:53:20;;;;;;;117.82;47.95;;;4.30;99.90;;;;;;5097121;28;20021;-51
2022/04/06 01:55:46;;;;;;;160.30;58.40;;;4.20;99.90;;;;;;5096777;28;20106;-51
2022/04/06 01:58:13;;;;;;;111.65;45.13;;;4.00;99.90;;;;;;5096793;28;20079;-51
2022/04/06 02:00:40;;;;;;;91.38;39.22;;;4.00;99.90;;;;;;5096851;28;20093;-51
2022/04/06 02:03:06;;;;;;;68.97;34.00;;;3.90;99.90;;;;;;5096554;28;20028;-51
2022/04/06 02:05:33;;;;;;;77.80;34.88;;;3.90;99.90;;;;;;5096730;28;20513;-51
2022/04/06 02:08:00;;;;;;;69.60;33.58;;;3.90;99.90;;;;;;5096713;28;20032;-51
2022/04/06 02:10:27;;;;;;;71.20;32.92;;;3.80;99.90;;;;;;5096477;28;20040;-51
2022/04/06 02:12:58;;;;;;;62.33;31.02;;;3.90;99.90;;;;;;5096401;28;20398;-51
2022/04/06 02:15:27;;;;;;;151.60;59.50;;;3.80;99.90;;;;;;5096522;28;20046;-51
2022/04/06 02:17:54;;;;;;;130.52;54.08;;;3.70;99.90;;;;;;5096381;28;20085;-51
2022/04/06 02:20:20;;;;;;;97.47;42.47;;;3.50;99.90;;;;;;5096300;28;20032;-51
2022/04/06 02:22:47;;;;;;;79.78;35.78;;;3.50;99.90;;;;;;5096402;28;20024;-51
2022/04/06 02:25:13;;;;;;;66.90;32.10;;;3.50;99.90;;;;;;5096313;28;20031;-51
2022/04/06 02:27:53;;;;;;;91.50;42.72;;;3.60;99.90;;;;;;5096313;28;20039;-51
2022/04/06 02:30:20;;;;;;;96.60;41.63;;;3.70;99.90;;;;;;5096068;28;20028;-50
2022/04/06 02:32:47;;;;;;;80.78;37.25;;;3.70;99.90;;;;;;5096254;28;20039;-51
2022/04/06 02:35:13;;;;;;;75.13;33.97;;;3.70;99.90;;;;;;5096267;28;20561;-51
2022/04/06 02:37:41;;;;;;;66.03;31.45;;;3.70;99.90;;;;;;5096087;28;20028;-51
2022/04/06 02:40:09;;;;;;;72.70;33.10;;;3.70;99.90;;;;;;5096054;28;20375;-51
2022/04/06 02:42:35;;;;;;;74.40;35.05;;;3.60;99.90;;;;;;5096042;28;20024;-51
2022/04/06 02:45:01;;;;;;;81.75;38.33;;;3.60;99.90;;;;;;5095962;28;20385;-51
2022/04/06 02:47:27;;;;;;;80.57;39.13;;;3.50;99.90;;;;;;5095801;28;20031;-50
2022/04/06 02:49:53;;;;;;;68.97;32.65;;;3.50;99.90;;;;;;5095803;28;20040;-51
2022/04/06 02:52:19;;;;;;;76.80;35.25;;;3.50;99.90;;;;;;5095894;28;20035;-51
2022/04/06 02:54:45;;;;;;;76.47;36.72;;;3.50;99.90;;;;;;5095836;28;20031;-51
2022/04/06 02:57:11;;;;;;;73.72;35.85;;;3.40;99.90;;;;;;5095840;28;20067;-51
2022/04/06 02:59:39;;;;;;;77.97;37.58;;;3.30;99.90;;;;;;5096063;28;20032;-51
2022/04/06 03:02:05;;;;;;;83.70;38.03;;;3.20;99.90;;;;;;5095994;28;20416;-51
2022/04/06 03:04:31;;;;;;;79.10;37.55;;;3.10;99.90;;;;;;5095776;28;20024;-51
2022/04/06 03:06:57;;;;;;;67.43;32.92;;;3.10;99.90;;;;;;5095439;28;20390;-51
2022/04/06 03:09:23;;;;;;;63.88;32.22;;;3.00;99.90;;;;;;5095720;28;20081;-51
2022/04/06 03:11:49;;;;;;;70.53;31.85;;;2.90;99.90;;;;;;5095288;28;20023;-51
2022/04/06 03:14:15;;;;;;;65.85;32.42;;;3.00;99.90;;;;;;5095295;28;20030;-51
2022/04/06 03:16:41;;;;;;;69.72;35.40;;;3.00;99.90;;;;;;5095100;28;20042;-51
2022/04/06 03:19:07;;;;;;;70.25;34.25;;;3.00;99.90;;;;;;5095107;28;20066;-51
2022/04/06 03:21:33;;;;;;;64.22;30.20;;;3.00;99.90;;;;;;5095237;28;20081;-51
2022/04/06 03:23:59;;;;;;;61.42;30.88;;;3.00;99.90;;;;;;5095206;28;20090;-51
2022/04/06 03:26:25;;;;;;;73.70;31.15;;;3.00;99.90;;;;;;5095216;28;20028;-51
2022/04/06 03:28:50;;;;;;;62.08;30.08;;;2.90;99.90;;;;;;5095106;28;20024;-51
2022/04/06 03:31:16;;;;;;;67.30;29.80;;;2.80;99.90;;;;;;5095085;28;20035;-51
2022/04/06 03:33:42;;;;;;;61.47;29.77;;;2.80;99.90;;;;;;5095019;28;20032;-50
2022/04/06 03:36:09;;;;;;;56.83;28.83;;;2.70;99.90;;;;;;5094977;28;20035;-51
2022/04/06 03:38:35;;;;;;;65.68;33.35;;;2.80;99.90;;;;;;5095006;28;20028;-51
2022/04/06 03:41:01;;;;;;;67.20;33.97;;;2.80;99.90;;;;;;5094986;28;20031;-51
2022/04/06 03:43:27;;;;;;;64.10;32.42;;;2.70;99.90;;;;;;5094158;28;20032;-51
2022/04/06 03:45:53;;;;;;;65.45;30.77;;;2.60;99.90;;;;;;5094954;28;20032;-51
2022/04/06 03:48:22;;;;;;;57.17;29.70;;;2.70;99.90;;;;;;5094760;28;20032;-51
2022/04/06 03:50:50;;;;;;;63.50;29.65;;;2.60;99.90;;;;;;5095009;28;20443;-51
2022/04/06 03:53:17;;;;;;;63.90;33.05;;;2.60;99.90;;;;;;5094924;28;20045;-51
2022/04/06 03:55:43;;;;;;;65.32;33.45;;;2.60;99.90;;;;;;5094661;28;20394;-51
2022/04/06 03:58:09;;;;;;;65.47;35.33;;;2.50;99.90;;;;;;5094548;28;20081;-51
2022/04/06 04:00:34;;;;;;;76.82;34.33;;;2.50;99.90;;;;;;5094606;28;20024;-51
2022/04/06 04:03:01;;;;;;;87.80;36.22;;;2.50;99.90;;;;;;5094673;28;20561;-50
2022/04/06 04:05:26;;;;;;;75.25;36.40;;;2.50;99.90;;;;;;5094955;28;20070;-51
2022/04/06 04:07:52;;;;;;;81.97;35.55;;;2.50;99.90;;;;;;5094602;28;20027;-51
2022/04/06 04:10:19;;;;;;;68.32;31.73;;;2.50;99.90;;;;;;5094330;28;20058;-51
2022/04/06 04:12:45;;;;;;;74.78;35.78;;;2.40;99.90;;;;;;5094608;28;20099;-51
2022/04/06 04:15:11;;;;;;;73.95;33.80;;;2.50;99.90;;;;;;5094244;28;20020;-51
2022/04/06 04:17:37;;;;;;;64.95;33.38;;;2.50;99.90;;;;;;5094705;28;20105;-51
2022/04/06 04:20:04;;;;;;;67.35;31.85;;;2.60;99.90;;;;;;5094257;28;20032;-50
2022/04/06 04:22:30;;;;;;;79.05;34.35;;;2.70;99.90;;;;;;5094474;28;20500;-51
2022/04/06 04:24:56;;;;;;;81.88;33.17;;;2.70;99.90;;;;;;5094168;28;20040;-51
2022/04/06 04:27:22;;;;;;;62.20;31.23;;;2.60;99.90;;;;;;5094373;28;20035;-51
2022/04/06 04:29:48;;;;;;;56.78;28.20;;;2.60;99.90;;;;;;5094199;28;20486;-51
2022/04/06 04:32:17;;;;;;;55.33;26.90;;;2.60;99.90;;;;;;5094200;28;20044;-51
2022/04/06 04:34:44;;;;;;;65.70;29.85;;;2.70;99.90;;;;;;5094205;28;20029;-51
2022/04/06 04:37:10;;;;;;;60.65;28.52;;;2.70;99.90;;;;;;5094384;28;20031;-51
2022/04/06 04:39:36;;;;;;;59.08;30.92;;;2.80;99.90;;;;;;5093988;28;20028;-51
2022/04/06 04:42:02;;;;;;;58.17;29.38;;;2.80;99.90;;;;;;5094327;28;20032;-51
2022/04/06 04:44:28;;;;;;;65.70;30.08;;;3.00;99.90;;;;;;5094272;28;20040;-51
2022/04/06 04:46:54;;;;;;;65.82;29.73;;;3.00;99.90;;;;;;5094037;28;20024;-51
2022/04/06 04:49:20;;;;;;;55.05;28.70;;;3.10;99.90;;;;;;5094018;28;20039;-51
2022/04/06 04:51:46;;;;;;;59.72;29.48;;;3.20;99.90;;;;;;5094414;28;20465;-50
2022/04/06 04:54:12;;;;;;;74.38;33.03;;;3.30;99.90;;;;;;5094787;28;20032;-51
2022/04/06 04:56:41;;;;;;;75.55;34.42;;;3.30;99.90;;;;;;5098060;28;20032;-51
2022/04/06 04:59:07;;;;;;;78.78;32.85;;;3.30;99.90;;;;;;5097896;28;20028;-51
2022/04/06 05:01:33;;;;;;;82.63;34.92;;;3.50;99.90;;;;;;5097812;28;20020;-51
2022/04/06 05:03:59;;;;;;;75.55;34.53;;;3.60;99.90;;;;;;5097867;28;20442;-51
2022/04/06 05:06:25;;;;;;;76.18;36.88;;;3.80;99.90;;;;;;5097708;28;20024;-51
2022/04/06 05:08:51;;;;;;;83.55;35.45;;;3.90;99.90;;;;;;5097635;28;20523;-51
2022/04/06 05:11:17;;;;;;;80.78;37.38;;;3.90;99.90;;;;;;5097699;28;20028;-51
2022/04/06 05:13:43;;;;;;;91.95;40.00;;;4.10;99.90;;;;;;5097493;28;20056;-51
2022/04/06 05:16:09;;;;;;;97.05;43.47;;;4.20;99.90;;;;;;5097384;28;20055;-51
2022/04/06 05:18:35;;;;;;;100.25;44.47;;;4.40;99.90;;;;;;5097238;28;20429;-52
2022/04/06 05:21:01;;;;;;;103.47;43.63;;;4.60;99.90;;;;;;5091345;28;20113;-51
2022/04/06 05:23:27;;;;;;;99.60;41.15;;;4.70;99.90;;;;;;5085432;28;20031;-51
2022/04/06 05:25:53;;;;;;;76.72;37.45;;;4.90;99.90;;;;;;5087416;28;20028;-51
2022/04/06 05:28:19;;;;;;;83.18;36.72;;;5.00;99.90;;;;;;5089186;28;20039;-51
2022/04/06 05:30:46;;;;;;;95.70;38.13;;;5.20;99.90;;;;;;5075214;28;20028;-51
2022/04/06 05:33:12;;;;;;;70.95;35.78;;;5.40;99.90;;;;;;5089966;28;20534;-51
2022/04/06 05:35:38;;;;;;;86.35;38.97;;;5.60;99.90;;;;;;5085042;28;20032;-51
2022/04/06 05:38:04;;;;;;;83.93;37.58;;;5.80;99.90;;;;;;5088089;28;20047;-51
2022/04/06 05:40:30;;;;;;;102.90;42.03;;;5.90;99.90;;;;;;5081498;28;20036;-51
2022/04/06 05:42:56;;;;;;;108.35;46.35;;;6.00;99.90;;;;;;5094645;28;20033;-51
2022/04/06 05:45:22;;;;;;;106.32;43.55;;;6.20;99.90;;;;;;5096285;28;20115;-52
2022/04/06 05:47:48;;;;;;;116.32;46.33;;;6.40;99.90;;;;;;5094597;28;20032;-51
2022/04/06 05:50:15;;;;;;;111.00;46.80;;;6.50;99.90;;;;;;5081698;28;20025;-52
2022/04/06 05:52:42;;;;;;;112.25;47.45;;;6.80;99.90;;;;;;5088828;28;20035;-53
2022/04/06 05:55:09;;;;;;;126.65;49.97;;;7.00;99.90;;;;;;5094948;28;20027;-53
2022/04/06 05:57:35;;;;;;;105.72;41.45;;;7.20;99.90;;;;;;5061403;28;20024;-52
2022/04/06 06:00:02;;;;;;;93.45;38.83;;;7.50;99.90;;;;;;5095901;28;20035;-52
2022/04/06 06:02:43;;;;;;;98.15;41.00;;;7.70;99.90;;;;;;5095897;28;20028;-52
2022/04/06 06:05:09;;;;;;;105.25;45.15;;;8.00;99.90;;;;;;5093468;28;20028;-53
2022/04/06 06:07:35;;;;;;;95.43;41.47;;;8.20;99.90;;;;;;5095736;28;20027;-52
2022/04/06 06:10:02;;;;;;;91.50;36.88;;;8.50;99.90;;;;;;5095782;28;20073;-52
2022/04/06 06:12:29;;;;;;;92.60;37.22;;;8.60;99.90;;;;;;5096022;28;20058;-52
2022/04/06 06:14:55;;;;;;;95.68;38.47;;;8.80;99.90;;;;;;5095645;28;20366;-52
2022/04/06 06:17:21;;;;;;;82.03;36.25;;;9.10;99.90;;;;;;5095559;28;20043;-52
2022/04/06 06:19:47;;;;;;;84.55;37.72;;;9.30;99.90;;;;;;5060691;28;20032;-52
2022/04/06 06:22:14;;;;;;;97.88;41.38;;;9.50;99.90;;;;;;5096114;28;20535;-53
2022/04/06 06:24:40;;;;;;;106.22;41.47;;;9.80;99.90;;;;;;5078156;28;20027;-53
2022/04/06 06:27:06;;;;;;;98.32;43.17;;;9.90;99.90;;;;;;5096218;28;20067;-52
2022/04/06 06:29:33;;;;;;;108.13;43.58;;;10.20;99.90;;;;;;5096119;28;20028;-53
2022/04/06 06:31:59;;;;;;;104.47;42.05;;;10.50;99.90;;;;;;5095962;28;20123;-53
2022/04/06 06:34:26;;;;;;;95.07;38.25;;;10.70;99.90;;;;;;5092819;28;20047;-52
2022/04/06 06:36:55;;;;;;;102.70;39.72;;;11.00;99.90;;;;;;5095845;28;20062;-53
2022/04/06 06:39:21;;;;;;;90.70;37.40;;;11.20;99.90;;;;;;5096061;28;20165;-52
2022/04/06 06:41:47;;;;;;;92.13;34.85;;;11.50;99.90;;;;;;5095985;28;20056;-53
2022/04/06 06:44:14;;;;;;;96.13;37.95;;;11.70;97.60;;;;;;5078389;28;20031;-54
2022/04/06 06:46:40;;;;;;;97.97;37.90;;;11.90;97.80;;;;;;5096080;28;20475;-54
2022/04/06 06:49:07;;;;;;;87.47;38.97;;;12.20;97.40;;;;;;5077670;28;20024;-54
2022/04/06 06:51:33;;;;;;;84.63;36.42;;;12.40;97.40;;;;;;5095462;28;20038;-54
2022/04/06 06:54:00;;;;;;;79.50;35.83;;;12.60;95.00;;;;;;5095911;28;20028;-54
2022/04/06 06:56:26;;;;;;;74.28;34.03;;;12.80;93.30;;;;;;5093511;28;20378;-54
2022/04/06 06:58:53;;;;;;;80.10;36.25;;;13.20;94.00;;;;;;5095501;28;20058;-51
2022/04/06 07:01:19;;;;;;;82.00;34.45;;;13.40;91.80;;;;;;5095514;28;20531;-51
2022/04/06 07:03:45;;;;;;;73.50;33.17;;;13.40;91.60;;;;;;5095380;28;20024;-51
2022/04/06 07:06:11;;;;;;;75.32;33.35;;;13.70;92.70;;;;;;5095293;28;20321;-51
2022/04/06 07:08:37;;;;;;;71.90;34.00;;;14.10;92.20;;;;;;5095187;28;20627;-51
2022/04/06 07:11:04;;;;;;;75.75;33.17;;;14.20;87.20;;;;;;5094704;28;20024;-51
2022/04/06 07:13:30;;;;;;;76.70;31.40;;;14.20;86.20;;;;;;5080375;28;20479;-51
2022/04/06 07:15:56;;;;;;;56.30;28.13;;;14.50;86.40;;;;;;5093319;28;20044;-52
2022/04/06 07:18:23;;;;;;;49.50;25.52;;;14.40;83.40;;;;;;5087551;28;20033;-51
2022/04/06 07:20:49;;;;;;;79.95;33.45;;;14.70;80.90;;;;;;5093961;28;20173;-51
2022/04/06 07:23:16;;;;;;;78.60;34.88;;;14.80;72.70;;;;;;5095463;28;20505;-51
2022/04/06 07:25:42;;;;;;;83.97;34.08;;;15.10;83.50;;;;;;5094884;28;20105;-52
2022/04/06 07:28:09;;;;;;;57.63;26.63;;;15.30;76.10;;;;;;5095073;28;20404;-53
2022/04/06 07:30:35;;;;;;;68.97;28.60;;;15.70;72.30;;;;;;5094958;28;20040;-52
2022/04/06 07:33:01;;;;;;;53.25;25.15;;;16.00;73.40;;;;;;5094118;28;20485;-54
2022/04/06 07:35:27;;;;;;;40.58;19.33;;;15.90;62.50;;;;;;5095066;28;20028;-54
2022/04/06 07:37:54;;;;;;;41.90;22.23;;;16.10;69.50;;;;;;5085454;28;20525;-52
2022/04/06 07:40:22;;;;;;;48.65;19.30;;;16.50;70.50;;;;;;5095642;28;20051;-54
2022/04/06 07:42:49;;;;;;;45.22;17.98;;;16.70;57.80;;;;;;5095296;28;20034;-52
2022/04/06 07:45:17;;;;;;;40.00;19.35;;;17.00;54.20;;;;;;5093789;28;20035;-53
2022/04/06 07:47:49;;;;;;;37.70;18.58;;;17.30;55.00;;;;;;5094614;28;20106;-54
2022/04/06 07:50:16;;;;;;;38.17;18.83;;;17.30;49.20;;;;;;5095037;28;20085;-54
2022/04/06 07:52:43;;;;;;;29.30;18.35;;;17.50;48.70;;;;;;5094230;28;20032;-54
2022/04/06 07:55:11;;;;;;;40.78;19.17;;;17.70;53.00;;;;;;5093655;28;20024;-54
2022/04/06 07:57:37;;;;;;;40.92;21.15;;;17.90;46.70;;;;;;5088931;28;20032;-54
2022/04/06 08:00:10;;;;;;;64.93;21.88;;;18.50;50.00;;;;;;5076522;28;20032;-54
2022/04/06 08:02:36;;;;;;;38.97;18.65;;;18.80;50.70;;;;;;5074180;28;20103;-54
2022/04/06 08:05:04;;;;;;;52.33;22.52;;;19.10;48.10;;;;;;5074253;28;20028;-54
2022/04/06 08:07:31;;;;;;;51.15;22.95;;;19.10;45.50;;;;;;5074204;28;20477;-54
2022/04/06 08:09:57;;;;;;;40.85;19.35;;;19.20;44.10;;;;;;5089179;28;20535;-54
2022/04/06 08:12:23;;;;;;;39.88;20.17;;;19.40;43.20;;;;;;5094219;28;20024;-54
2022/04/06 08:14:50;;;;;;;36.05;19.20;;;19.50;43.10;;;;;;5093966;28;20458;-54
2022/04/06 08:17:17;;;;;;;47.55;19.15;;;19.40;44.60;;;;;;5093807;28;20474;-54
2022/04/06 08:19:43;;;;;;;58.38;21.08;;;20.10;42.80;;;;;;5093804;28;20035;-54
2022/04/06 08:22:09;;;;;;;45.38;20.08;;;20.60;44.50;;;;;;5093656;28;20412;-52
2022/04/06 08:24:35;;;;;;;45.65;20.38;;;21.00;41.00;;;;;;5093503;28;20560;-52
2022/04/06 08:27:01;;;;;;;41.45;20.08;;;21.30;40.50;;;;;;5093464;28;20137;-52
2022/04/06 08:29:27;;;;;;;38.17;19.30;;;21.30;39.20;;;;;;5095754;28;20031;-52
2022/04/06 08:31:53;;;;;;;45.05;19.45;;;21.70;39.90;;;;;;5098179;28;20114;-52
2022/04/06 08:34:22;;;;;;;39.97;18.65;;;22.10;38.00;;;;;;5098833;28;20298;-52
2022/04/06 08:36:49;;;;;;;38.10;19.03;;;21.80;36.40;;;;;;5080778;28;20416;-52
2022/04/06 08:39:15;;;;;;;41.28;19.10;;;21.60;37.40;;;;;;5097679;28;20390;-52
2022/04/06 08:41:41;;;;;;;41.20;19.45;;;21.60;38.10;;;;;;5098301;28;20027;-52
2022/04/06 08:44:09;;;;;;;41.33;19.80;;;22.00;37.60;;;;;;5097385;28;20344;-52
2022/04/06 08:46:37;;;;;;;34.53;19.63;;;22.40;37.30;;;;;;5097897;28;20127;-52
2022/04/06 08:49:04;;;;;;;44.58;21.30;;;22.00;35.40;;;;;;5096757;28;20024;-52
2022/04/06 08:51:33;;;;;;;42.55;21.08;;;22.30;36.40;;;;;;5083773;28;20062;-52
2022/04/06 08:54:00;;;;;;;36.72;19.88;;;22.50;35.30;;;;;;5092154;28;20043;-52
2022/04/06 08:56:26;;;;;;;39.90;19.95;;;22.40;34.80;;;;;;5096331;28;20439;-52
2022/04/06 08:58:52;;;;;;;52.45;21.23;;;22.40;36.20;;;;;;5096255;28;20031;-53
2022/04/06 09:01:21;;;;;;;53.28;20.75;;;22.40;35.40;;;;;;5096746;28;20028;-53
2022/04/06 09:03:48;;;;;;;43.35;20.95;;;22.50;36.00;;;;;;5097834;28;20024;-53
2022/04/06 09:06:14;;;;;;;38.45;18.15;;;22.90;35.80;;;;;;5097533;28;20028;-53
2022/04/06 09:08:45;;;;;;;39.13;18.88;;;23.10;33.70;;;;;;5097735;28;20032;-53
2022/04/06 09:11:22;;;;;;;37.20;18.27;;;22.80;33.20;;;;;;5097154;28;20119;-53
2022/04/06 09:13:59;;;;;;;47.85;19.10;;;23.40;33.80;;;;;;5096960;28;20027;-53
2022/04/06 09:16:29;;;;;;;37.88;19.02;;;23.70;33.20;;;;;;5096466;28;20595;-53
2022/04/06 09:18:55;;;;;;;38.10;19.48;;;24.20;32.50;;;;;;5096751;28;20020;-53
2022/04/06 09:21:20;;;;;;;47.38;17.40;;;24.90;32.90;;;;;;5096702;28;20038;-53
2022/04/06 09:23:51;;;;;;;42.35;19.02;;;24.50;30.60;;;;;;5097351;28;20085;-53
2022/04/06 09:26:21;;;;;;;31.60;16.30;;;24.60;32.00;;;;;;5097433;28;20024;-53
2022/04/06 09:28:49;;;;;;;31.33;15.93;;;24.80;31.60;;;;;;5097128;28;20035;-53
2022/04/06 09:31:16;;;;;;;31.10;16.27;;;25.20;32.00;;;;;;5097118;28;20119;-53
2022/04/06 09:33:44;;;;;;;34.60;18.13;;;25.80;31.60;;;;;;5097536;28;20020;-53
2022/04/06 09:36:20;;;;;;;53.92;18.50;;;26.30;30.00;;;;;;5097134;28;20028;-53
2022/04/06 09:38:51;;;;;;;31.88;16.73;;;25.60;30.80;;;;;;5095212;28;20020;-53
2022/04/06 09:41:19;;;;;;;34.42;17.20;;;25.60;29.70;;;;;;5096898;28;20066;-53
2022/04/06 09:43:50;;;;;;;28.17;14.18;;;25.60;29.20;;;;;;5097028;28;20056;-53
2022/04/06 09:49:13;;;;;;;27.92;11.30;;;25.00;28.40;;;;;;5097060;28;20107;-53
2022/04/06 09:51:44;;;;;;;16.63;8.15;;;25.40;28.20;;;;;;5096895;28;20059;-54
2022/04/06 09:54:14;;;;;;;14.75;7.10;;;26.00;27.30;;;;;;5096609;28;20093;-53
2022/04/06 09:56:42;;;;;;;27.27;8.27;;;27.10;27.40;;;;;;5096632;28;20031;-53
2022/04/06 09:59:09;;;;;;;12.35;6.28;;;26.70;25.00;;;;;;5096707;28;20111;-53
2022/04/06 10:01:47;;;;;;;22.80;7.32;;;26.50;24.50;;;;;;5094802;28;20428;-53
2022/04/06 10:04:14;;;;;;;25.95;8.80;;;27.00;26.10;;;;;;5096292;28;20529;-53
2022/04/06 10:06:41;;;;;;;17.35;8.05;;;27.30;26.70;;;;;;5096031;28;20063;-54
2022/04/06 10:09:14;;;;;;;21.35;6.80;;;27.20;24.80;;;;;;5096611;28;20036;-54
2022/04/06 10:11:41;;;;;;;8.98;5.22;;;27.40;25.70;;;;;;5096143;28;20032;-54
2022/04/06 10:14:10;;;;;;;7.63;3.92;;;27.30;24.20;;;;;;5096028;28;20058;-54
2022/04/06 10:16:38;;;;;;;7.93;4.22;;;27.60;23.80;;;;;;5096281;28;20131;-54
2022/04/06 10:19:13;;;;;;;8.32;5.30;;;27.50;23.30;;;;;;5095947;28;20048;-54
2022/04/06 10:21:56;;;;;;;13.48;4.70;;;27.70;23.40;;;;;;5095313;28;20111;-54
2022/04/06 10:24:47;;;;;;;10.27;5.25;;;28.30;24.50;;;;;;5096114;28;20059;-53
2022/04/06 10:27:24;;;;;;;7.93;4.93;;;28.40;24.10;;;;;;5096076;28;20028;-54
2022/04/06 10:30:10;;;;;;;9.15;4.63;;;27.80;23.50;;;;;;5095860;28;20028;-53
2022/04/06 10:32:39;;;;;;;12.23;3.40;;;27.30;23.60;;;;;;5096076;28;20035;-53
2022/04/06 10:35:31;;;;;;;20.57;4.47;;;27.30;23.20;;;;;;5096033;28;20020;-53
2022/04/06 10:37:57;;;;;;;9.80;2.90;;;27.70;22.40;;;;;;5095756;28;20039;-54
2022/04/06 10:40:31;;;;;;;5.95;3.00;;;27.60;21.40;;;;;;5095925;28;20032;-54
2022/04/06 10:42:57;;;;;;;5.13;2.53;;;27.90;21.80;;;;;;5095580;28;20031;-54
2022/04/06 10:45:27;;;;;;;9.40;2.88;;;28.00;22.10;;;;;;5093789;28;20027;-53
2022/04/06 10:48:14;;;;;;;7.03;2.53;;;27.20;21.40;;;;;;5095939;28;20043;-53
2022/04/06 10:50:44;;;;;;;8.30;2.97;;;27.80;23.30;;;;;;5094833;28;20491;-54
2022/04/06 10:53:19;;;;;;;11.80;3.35;;;28.40;23.00;;;;;;5095595;28;20020;-54
2022/04/06 10:56:06;;;;;;;19.27;3.95;;;28.80;22.50;;;;;;5094793;28;20068;-54
2022/04/06 10:59:09;;;;;;;6.03;2.10;;;28.90;21.80;;;;;;5095659;28;20046;-54
2022/04/06 11:01:35;;;;;;;6.93;3.00;;;29.00;22.50;;;;;;5063151;28;20092;-54
2022/04/06 11:04:09;;;;;;;5.13;1.90;;;29.10;21.90;;;;;;5095975;28;20195;-54
2022/04/06 11:06:41;;;;;;;4.47;2.80;;;29.20;21.30;;;;;;5094518;28;20024;-54
2022/04/06 11:12:33;;;;;;;8.50;2.80;;;29.10;20.50;;;;;;5091243;28;20038;-54
2022/04/06 11:14:59;;;;;;;7.20;2.65;;;29.30;21.10;;;;;;5094442;28;20084;-54
2022/04/06 11:17:34;;;;;;;6.82;3.03;;;29.40;21.00;;;;;;5094677;28;20036;-54
2022/04/06 11:20:12;;;;;;;8.85;3.33;;;29.10;19.70;;;;;;5093907;28;20035;-53
2022/04/06 11:22:42;;;;;;;7.47;2.22;;;28.90;20.20;;;;;;5094955;28;20056;-54
2022/04/06 11:25:20;;;;;;;15.60;3.08;;;29.20;20.20;;;;;;5094802;28;20544;-53
2022/04/06 11:27:47;;;;;;;18.33;4.90;;;29.40;22.00;;;;;;5094866;28;20083;-54
2022/04/06 11:30:17;;;;;;;4.55;2.10;;;29.40;21.20;;;;;;5094752;28;20107;-54
2022/04/06 11:32:51;;;;;;;8.23;2.15;;;29.70;20.80;;;;;;5094669;28;20027;-54
2022/04/06 11:35:17;;;;;;;10.00;3.08;;;29.90;20.40;;;;;;5076221;28;20047;-54
2022/04/06 11:37:46;;;;;;;6.05;2.28;;;29.20;18.80;;;;;;5094827;28;20027;-54
2022/04/06 11:40:20;;;;;;;3.83;2.08;;;29.10;20.00;;;;;;5093618;28;20028;-54
2022/04/06 11:42:51;;;;;;;9.82;2.40;;;28.70;19.00;;;;;;5094621;28;20028;-54
2022/04/06 11:45:36;;;;;;;18.80;4.53;;;28.10;18.90;;;;;;5094121;28;20116;-54
2022/04/06 11:48:05;;;;;;;15.15;3.53;;;28.20;20.30;;;;;;5094561;28;20385;-54
2022/04/06 11:50:34;;;;;;;11.65;2.80;;;28.80;21.40;;;;;;5093688;28;20116;-54
2022/04/06 11:53:05;;;;;;;9.35;2.50;;;29.20;21.60;;;;;;5095001;28;20020;-54
2022/04/06 11:55:50;;;;;;;8.40;1.42;;;29.50;21.90;;;;;;5094969;28;20027;-54
2022/04/06 11:58:39;;;;;;;7.47;1.95;;;29.80;20.10;;;;;;5094932;28;20024;-54
2022/04/06 12:01:17;;;;;;;6.00;2.15;;;30.10;20.10;;;;;;5093416;28;20169;-54
2022/04/06 12:03:45;;;;;;;3.53;1.52;;;30.10;21.30;;;;;;5091088;28;20039;-54
2022/04/06 12:06:14;;;;;;;12.07;3.67;;;30.00;20.60;;;;;;5093454;28;20031;-54
2022/04/06 12:08:42;;;;;;;12.45;3.03;;;30.10;21.10;;;;;;5093748;28;20395;-54
2022/04/06 12:11:11;;;;;;;7.13;2.42;;;30.30;21.40;;;;;;5089573;28;20337;-54
2022/04/06 12:13:46;;;;;;;7.28;2.10;;;30.30;20.00;;;;;;5084542;28;20335;-54
2022/04/06 12:16:13;;;;;;;19.88;4.60;;;30.10;18.50;;;;;;5092614;28;20400;-54
2022/04/06 12:18:41;;;;;;;14.00;3.78;;;29.50;19.50;;;;;;5090535;28;20020;-54
2022/04/06 12:25:31;;;;;;;8.02;2.20;;;29.60;20.10;;;;;;5090135;28;20082;-53
2022/04/06 12:28:21;;;;;;;7.45;2.13;;;29.80;19.90;;;;;;5086306;28;20036;-53
2022/04/06 12:31:03;;;;;;;8.60;3.03;;;30.00;20.50;;;;;;5080359;28;20055;-53
2022/04/06 12:33:53;;;;;;;8.80;2.35;;;30.00;20.10;;;;;;5093450;28;20036;-54
2022/04/06 12:36:30;;;;;;;32.17;4.07;;;29.90;19.70;;;;;;5093621;28;20028;-54
2022/04/06 12:39:02;;;;;;;33.65;5.18;;;30.00;21.00;;;;;;5091637;28;20024;-54
2022/04/06 12:41:32;;;;;;;19.02;3.22;;;29.70;20.40;;;;;;5085769;28;20036;-53
2022/04/06 12:43:59;;;;;;;13.55;2.28;;;29.50;19.70;;;;;;5089003;28;20059;-54
2022/04/06 12:46:51;;;;;;;21.27;3.65;;;29.50;20.20;;;;;;5091920;28;20032;-53
2022/04/06 12:49:19;;;;;;;2.63;1.40;;;29.60;20.80;;;;;;5082716;28;20045;-54
2022/04/06 12:51:45;;;;;;;4.88;2.45;;;29.50;20.70;;;;;;5077162;28;20039;-54